Alexandra — WDD5677 — position and weather

sailwx.info

Track history (hours):
 
Tides and Currents Weather Stations Pressure Air Temp Water Temp Dewpoint Dewpoint Depression Visibility Wind Speed Wind Dir Waves Ship Positions

Alexandra

Owner: Weeks Marine, Inc., Cranford, NJ. More information available from US FCC via Universal Licensing System and Coast Guard Vessel Documentation Center.

Last reported at 2015-Apr-09 20:33 UTC. Time now 2015-Apr-21 02:54 UTC.
Position N 25°42' W 080°03'.
Warning: this ship's position is 11 days out of date.

Length 40 m; draft 5 m.

Type: Tug. MMSI: 367161950.

Date/timePositionNaut miles runAvg speedWind from/ knotsBaromVisibWave heightAir tempDewpointWater temp
2015-Apr-09 20:33N 25°42' W 080°03'9 8.6
2015-Apr-09 19:33N 25°50' W 080°03'8 8.3
2015-Apr-09 18:33N 25°59' W 080°03'8 8.0
2015-Apr-09 17:33N 26°07' W 080°03'7 7.3
2015-Apr-09 16:33N 26°14' W 080°02'7 6.9
2015-Apr-09 15:33N 26°21' W 080°02'8 7.8
2015-Apr-09 14:33N 26°29' W 080°01'17 7.9
2015-Apr-09 12:24N 26°46' W 079°59'6 7.2
2015-Apr-09 11:33N 26°52' W 079°59'8 8.0
2015-Apr-09 10:33N 26°60' W 080°00'270 8.7
2015-Apr-08 03:24N 31°29' W 080°27'8 9.2
2015-Apr-08 02:32N 31°36' W 080°23'9 9.2
2015-Apr-08 01:32N 31°44' W 080°17'10 9.1
2015-Apr-08 00:26N 31°53' W 080°12'8 9.1
2015-Apr-07 23:33N 32°00' W 080°09'  
2015-Apr-05 02:08N 39°21' W 074°08'6 8.9
2015-Apr-05 01:27N 39°27' W 074°05'9 8.7
2015-Apr-05 00:25N 39°36' W 074°01'8 8.8
2015-Apr-04 23:33N 39°43' W 073°59'9 8.6
2015-Apr-04 22:33N 39°51' W 073°57'42 8.4
2015-Apr-04 17:33N 40°33' W 074°02'7 7.1
2015-Apr-04 16:33N 40°40' W 074°04'1 0.6
2015-Apr-04 15:33N 40°40' W 074°04'0 0.0
2015-Apr-04 14:33N 40°40' W 074°04'0 0.1
2015-Apr-04 13:33N 40°41' W 074°04'0 0.0
2015-Apr-04 12:33N 40°41' W 074°05'0 0.1
2015-Apr-04 11:33N 40°41' W 074°04'0 0.0
2015-Apr-04 10:33N 40°41' W 074°04'0 0.0
2015-Apr-04 09:33N 40°41' W 074°04'0 0.0
2015-Apr-04 08:33N 40°41' W 074°04'0 0.0
2015-Apr-04 07:33N 40°41' W 074°04'0 0.0
2015-Apr-04 06:34N 40°41' W 074°04'0 0.0
2015-Apr-04 05:33N 40°41' W 074°04'0 0.0
2015-Apr-04 04:33N 40°41' W 074°04'0 0.0
2015-Apr-04 03:33N 40°41' W 074°04'0 0.0
2015-Apr-04 02:33N 40°41' W 074°04'0 0.0
2015-Apr-04 01:33N 40°41' W 074°04'0 0.0
2015-Apr-04 00:33N 40°41' W 074°04'0 0.0
2015-Apr-03 23:33N 40°41' W 074°04'0 0.0
2015-Apr-03 22:33N 40°41' W 074°04'0 0.0
2015-Apr-03 21:33N 40°41' W 074°04'0 0.0
2015-Apr-03 20:33N 40°41' W 074°04'0 0.0
2015-Apr-03 19:33N 40°41' W 074°04'0 0.0
2015-Apr-03 18:33N 40°41' W 074°04'0 0.0
2015-Apr-03 17:33N 40°41' W 074°04'0 0.0
2015-Apr-03 16:33N 40°41' W 074°04'0 0.0
2015-Apr-03 15:33N 40°41' W 074°04'0 0.0
2015-Apr-03 14:33N 40°41' W 074°04'0 0.0
2015-Apr-03 13:33N 40°41' W 074°04'0 0.0
2015-Apr-03 12:33N 40°41' W 074°04'0 0.1
2015-Apr-03 11:33N 40°41' W 074°05'0 0.0
2015-Apr-03 10:33N 40°41' W 074°05'0 0.0
2015-Apr-03 09:33N 40°41' W 074°05'0 0.0
2015-Apr-03 08:33N 40°41' W 074°05'0 0.0
2015-Apr-03 07:33N 40°41' W 074°05'0 0.0
2015-Apr-03 06:33N 40°41' W 074°05'0 0.0
2015-Apr-03 05:33N 40°41' W 074°05'0 0.0
2015-Apr-03 04:33N 40°41' W 074°05'0 0.0
2015-Apr-03 03:33N 40°41' W 074°05'0 0.0
2015-Apr-03 02:33N 40°41' W 074°05'0 0.0
2015-Apr-03 01:33N 40°41' W 074°05'0 0.0
2015-Apr-03 00:33N 40°41' W 074°05'0 0.0
2015-Apr-02 23:33N 40°41' W 074°05'0 0.0
2015-Apr-02 22:33N 40°41' W 074°05'0 0.0
2015-Apr-02 21:33N 40°41' W 074°05'0 0.0
2015-Apr-02 20:33N 40°41' W 074°05'0 0.0
2015-Apr-02 19:33N 40°41' W 074°05'0 0.0
2015-Apr-02 18:33N 40°41' W 074°05'0 0.0
2015-Apr-02 17:33N 40°41' W 074°05'0 0.0
2015-Apr-02 16:33N 40°41' W 074°05'0 0.0
2015-Apr-02 15:33N 40°41' W 074°05'0 0.0
2015-Apr-02 14:33N 40°41' W 074°05'49284939.3
2015-Apr-02 13:33S 41°28' W 074°05'49284928.3
2015-Apr-02 12:33N 40°41' W 074°05'0 0.0
2015-Apr-02 11:33N 40°41' W 074°05'0 0.0
2015-Apr-02 10:33N 40°41' W 074°05'0 0.0
2015-Apr-02 09:33N 40°41' W 074°05'0 0.0
2015-Apr-02 08:33N 40°41' W 074°05'0 0.0
2015-Apr-02 07:33N 40°41' W 074°05'0 0.0
2015-Apr-02 06:33N 40°41' W 074°05'0 0.0
2015-Apr-02 05:33N 40°41' W 074°05'0 0.0
2015-Apr-02 04:33N 40°41' W 074°05'0 0.0
2015-Apr-02 03:33N 40°41' W 074°05'0 0.0
2015-Apr-02 02:33N 40°41' W 074°05'0 0.0
2015-Apr-02 01:33N 40°41' W 074°05'0 0.0
2015-Apr-02 00:33N 40°41' W 074°05'0 0.1
2015-Apr-01 23:34N 40°41' W 074°04'0 0.1
2015-Apr-01 22:33N 40°41' W 074°05'0 0.0
2015-Apr-01 21:33N 40°41' W 074°05'0 0.0
2015-Apr-01 20:33N 40°41' W 074°05'0 0.0
2015-Apr-01 19:33N 40°41' W 074°04'0 0.0
2015-Apr-01 18:33N 40°41' W 074°05'0 0.0
2015-Apr-01 17:33N 40°41' W 074°05'0 0.0
2015-Apr-01 16:33N 40°41' W 074°05'0 0.0
2015-Apr-01 15:33N 40°41' W 074°05'0 0.0
2015-Apr-01 14:33N 40°41' W 074°05'0 0.0
2015-Apr-01 13:33N 40°41' W 074°05'0 0.0
2015-Apr-01 12:33N 40°41' W 074°05'0 0.0
2015-Apr-01 11:33N 40°41' W 074°05'0 0.0
2015-Apr-01 10:33N 40°41' W 074°05'0 0.0
2015-Apr-01 09:33N 40°41' W 074°05'0 0.0
2015-Apr-01 08:33N 40°41' W 074°05'0 0.0
2015-Apr-01 07:33N 40°41' W 074°05'0 0.0
2015-Apr-01 06:33N 40°41' W 074°05'0 0.0
2015-Apr-01 05:33N 40°41' W 074°05'0 0.0
2015-Apr-01 04:33N 40°41' W 074°05'0 0.0
2015-Apr-01 03:33N 40°41' W 074°05'0 0.0
2015-Apr-01 02:33N 40°41' W 074°05'0 0.0
2015-Apr-01 01:33N 40°41' W 074°05'0 0.0
2015-Apr-01 00:33N 40°41' W 074°05'0 0.0
2015-Mar-31 23:33N 40°41' W 074°05'0 0.0
2015-Mar-31 22:33N 40°41' W 074°05'0 0.0
2015-Mar-31 21:33N 40°41' W 074°05'0 0.0
2015-Mar-31 20:33N 40°41' W 074°05'0 0.0
2015-Mar-31 19:33N 40°41' W 074°05'2 1.9
2015-Mar-31 18:34N 40°39' W 074°04'2 1.9
2015-Mar-31 17:33N 40°40' W 074°05'1 0.6
2015-Mar-31 16:34N 40°40' W 074°04'0 0.1
2015-Mar-31 15:33N 40°41' W 074°05'0 0.0
2015-Mar-31 14:33N 40°41' W 074°05'0 0.0
2015-Mar-31 13:33N 40°41' W 074°05'0 0.0
2015-Mar-31 12:33N 40°41' W 074°05'0 0.0
2015-Mar-31 11:33N 40°41' W 074°05'0 0.0
2015-Mar-31 10:33N 40°41' W 074°05'0 0.0
2015-Mar-31 09:33N 40°41' W 074°05'0 0.0
2015-Mar-31 08:33N 40°41' W 074°05'0 0.0
2015-Mar-31 07:33N 40°41' W 074°05'0 0.0
2015-Mar-31 06:34N 40°41' W 074°05'0 0.0
2015-Mar-31 05:33N 40°41' W 074°05'0 0.0
2015-Mar-31 04:33N 40°41' W 074°05'0 0.0
2015-Mar-31 03:33N 40°41' W 074°05'0 0.0
2015-Mar-31 02:33N 40°41' W 074°05'0 0.0
2015-Mar-31 01:33N 40°41' W 074°05'0 0.0
2015-Mar-31 00:33N 40°41' W 074°05'0 0.0
2015-Mar-30 23:33N 40°41' W 074°05'0 0.0
2015-Mar-30 22:33N 40°41' W 074°05'0 0.0
2015-Mar-30 21:34N 40°41' W 074°05'0 0.0
2015-Mar-30 20:33N 40°41' W 074°05'  
Track history (hours):
 
Tides and Currents Weather Stations Pressure Air Temp Water Temp Dewpoint Dewpoint Depression Visibility Wind Speed Wind Dir Waves Ship Positions

Alexandra

Owner: Weeks Marine, Inc., Cranford, NJ. More information available from US FCC via Universal Licensing System and Coast Guard Vessel Documentation Center.

Last reported at 2015-Apr-09 20:33 UTC. Time now 2015-Apr-21 02:54 UTC.
Position N 25°42' W 080°03'.
Warning: this ship's position is 11 days out of date.

Length 40 m; draft 5 m.

Type: Tug. MMSI: 367161950.

Date/timePositionNaut miles runAvg speedWind from/ knotsBaromVisibWave heightAir tempDewpointWater temp
2015-Apr-09 20:33N 25°42' W 080°03'9 8.6
2015-Apr-09 19:33N 25°50' W 080°03'8 8.3
2015-Apr-09 18:33N 25°59' W 080°03'8 8.0
2015-Apr-09 17:33N 26°07' W 080°03'7 7.3
2015-Apr-09 16:33N 26°14' W 080°02'7 6.9
2015-Apr-09 15:33N 26°21' W 080°02'8 7.8
2015-Apr-09 14:33N 26°29' W 080°01'17 7.9
2015-Apr-09 12:24N 26°46' W 079°59'6 7.2
2015-Apr-09 11:33N 26°52' W 079°59'8 8.0
2015-Apr-09 10:33N 26°60' W 080°00'270 8.7
2015-Apr-08 03:24N 31°29' W 080°27'8 9.2
2015-Apr-08 02:32N 31°36' W 080°23'9 9.2
2015-Apr-08 01:32N 31°44' W 080°17'10 9.1
2015-Apr-08 00:26N 31°53' W 080°12'8 9.1
2015-Apr-07 23:33N 32°00' W 080°09'  
2015-Apr-05 02:08N 39°21' W 074°08'6 8.9
2015-Apr-05 01:27N 39°27' W 074°05'9 8.7
2015-Apr-05 00:25N 39°36' W 074°01'8 8.8
2015-Apr-04 23:33N 39°43' W 073°59'9 8.6
2015-Apr-04 22:33N 39°51' W 073°57'42 8.4
2015-Apr-04 17:33N 40°33' W 074°02'7 7.1
2015-Apr-04 16:33N 40°40' W 074°04'1 0.6
2015-Apr-04 15:33N 40°40' W 074°04'0 0.0
2015-Apr-04 14:33N 40°40' W 074°04'0 0.1
2015-Apr-04 13:33N 40°41' W 074°04'0 0.0
2015-Apr-04 12:33N 40°41' W 074°05'0 0.1
2015-Apr-04 11:33N 40°41' W 074°04'0 0.0
2015-Apr-04 10:33N 40°41' W 074°04'0 0.0
2015-Apr-04 09:33N 40°41' W 074°04'0 0.0
2015-Apr-04 08:33N 40°41' W 074°04'0 0.0
2015-Apr-04 07:33N 40°41' W 074°04'0 0.0
2015-Apr-04 06:34N 40°41' W 074°04'0 0.0
2015-Apr-04 05:33N 40°41' W 074°04'0 0.0
2015-Apr-04 04:33N 40°41' W 074°04'0 0.0
2015-Apr-04 03:33N 40°41' W 074°04'0 0.0
2015-Apr-04 02:33N 40°41' W 074°04'0 0.0
2015-Apr-04 01:33N 40°41' W 074°04'0 0.0
2015-Apr-04 00:33N 40°41' W 074°04'0 0.0
2015-Apr-03 23:33N 40°41' W 074°04'0 0.0
2015-Apr-03 22:33N 40°41' W 074°04'0 0.0
2015-Apr-03 21:33N 40°41' W 074°04'0 0.0
2015-Apr-03 20:33N 40°41' W 074°04'0 0.0
2015-Apr-03 19:33N 40°41' W 074°04'0 0.0
2015-Apr-03 18:33N 40°41' W 074°04'0 0.0
2015-Apr-03 17:33N 40°41' W 074°04'0 0.0
2015-Apr-03 16:33N 40°41' W 074°04'0 0.0
2015-Apr-03 15:33N 40°41' W 074°04'0 0.0
2015-Apr-03 14:33N 40°41' W 074°04'0 0.0
2015-Apr-03 13:33N 40°41' W 074°04'0 0.0
2015-Apr-03 12:33N 40°41' W 074°04'0 0.1
2015-Apr-03 11:33N 40°41' W 074°05'0 0.0
2015-Apr-03 10:33N 40°41' W 074°05'0 0.0
2015-Apr-03 09:33N 40°41' W 074°05'0 0.0
2015-Apr-03 08:33N 40°41' W 074°05'0 0.0
2015-Apr-03 07:33N 40°41' W 074°05'0 0.0
2015-Apr-03 06:33N 40°41' W 074°05'0 0.0
2015-Apr-03 05:33N 40°41' W 074°05'0 0.0
2015-Apr-03 04:33N 40°41' W 074°05'0 0.0
2015-Apr-03 03:33N 40°41' W 074°05'0 0.0
2015-Apr-03 02:33N 40°41' W 074°05'0 0.0
2015-Apr-03 01:33N 40°41' W 074°05'0 0.0
2015-Apr-03 00:33N 40°41' W 074°05'0 0.0
2015-Apr-02 23:33N 40°41' W 074°05'0 0.0
2015-Apr-02 22:33N 40°41' W 074°05'0 0.0
2015-Apr-02 21:33N 40°41' W 074°05'0 0.0
2015-Apr-02 20:33N 40°41' W 074°05'0 0.0
2015-Apr-02 19:33N 40°41' W 074°05'0 0.0
2015-Apr-02 18:33N 40°41' W 074°05'0 0.0
2015-Apr-02 17:33N 40°41' W 074°05'0 0.0
2015-Apr-02 16:33N 40°41' W 074°05'0 0.0
2015-Apr-02 15:33N 40°41' W 074°05'0 0.0
2015-Apr-02 14:33N 40°41' W 074°05'49284939.3
2015-Apr-02 13:33S 41°28' W 074°05'49284928.3
2015-Apr-02 12:33N 40°41' W 074°05'0 0.0
2015-Apr-02 11:33N 40°41' W 074°05'0 0.0
2015-Apr-02 10:33N 40°41' W 074°05'0 0.0
2015-Apr-02 09:33N 40°41' W 074°05'0 0.0
2015-Apr-02 08:33N 40°41' W 074°05'0 0.0
2015-Apr-02 07:33N 40°41' W 074°05'0 0.0
2015-Apr-02 06:33N 40°41' W 074°05'0 0.0
2015-Apr-02 05:33N 40°41' W 074°05'0 0.0
2015-Apr-02 04:33N 40°41' W 074°05'0 0.0
2015-Apr-02 03:33N 40°41' W 074°05'0 0.0
2015-Apr-02 02:33N 40°41' W 074°05'0 0.0
2015-Apr-02 01:33N 40°41' W 074°05'0 0.0
2015-Apr-02 00:33N 40°41' W 074°05'0 0.1
2015-Apr-01 23:34N 40°41' W 074°04'0 0.1
2015-Apr-01 22:33N 40°41' W 074°05'0 0.0
2015-Apr-01 21:33N 40°41' W 074°05'0 0.0
2015-Apr-01 20:33N 40°41' W 074°05'0 0.0
2015-Apr-01 19:33N 40°41' W 074°04'0 0.0
2015-Apr-01 18:33N 40°41' W 074°05'0 0.0
2015-Apr-01 17:33N 40°41' W 074°05'0 0.0
2015-Apr-01 16:33N 40°41' W 074°05'0 0.0
2015-Apr-01 15:33N 40°41' W 074°05'0 0.0
2015-Apr-01 14:33N 40°41' W 074°05'0 0.0
2015-Apr-01 13:33N 40°41' W 074°05'0 0.0
2015-Apr-01 12:33N 40°41' W 074°05'0 0.0
2015-Apr-01 11:33N 40°41' W 074°05'0 0.0
2015-Apr-01 10:33N 40°41' W 074°05'0 0.0
2015-Apr-01 09:33N 40°41' W 074°05'0 0.0
2015-Apr-01 08:33N 40°41' W 074°05'0 0.0
2015-Apr-01 07:33N 40°41' W 074°05'0 0.0
2015-Apr-01 06:33N 40°41' W 074°05'0 0.0
2015-Apr-01 05:33N 40°41' W 074°05'0 0.0
2015-Apr-01 04:33N 40°41' W 074°05'0 0.0
2015-Apr-01 03:33N 40°41' W 074°05'0 0.0
2015-Apr-01 02:33N 40°41' W 074°05'0 0.0
2015-Apr-01 01:33N 40°41' W 074°05'0 0.0
2015-Apr-01 00:33N 40°41' W 074°05'0 0.0
2015-Mar-31 23:33N 40°41' W 074°05'0 0.0
2015-Mar-31 22:33N 40°41' W 074°05'0 0.0
2015-Mar-31 21:33N 40°41' W 074°05'0 0.0
2015-Mar-31 20:33N 40°41' W 074°05'0 0.0
2015-Mar-31 19:33N 40°41' W 074°05'2 1.9
2015-Mar-31 18:34N 40°39' W 074°04'2 1.9
2015-Mar-31 17:33N 40°40' W 074°05'1 0.6
2015-Mar-31 16:34N 40°40' W 074°04'0 0.1
2015-Mar-31 15:33N 40°41' W 074°05'0 0.0
2015-Mar-31 14:33N 40°41' W 074°05'0 0.0
2015-Mar-31 13:33N 40°41' W 074°05'0 0.0
2015-Mar-31 12:33N 40°41' W 074°05'0 0.0
2015-Mar-31 11:33N 40°41' W 074°05'0 0.0
2015-Mar-31 10:33N 40°41' W 074°05'0 0.0
2015-Mar-31 09:33N 40°41' W 074°05'0 0.0
2015-Mar-31 08:33N 40°41' W 074°05'0 0.0
2015-Mar-31 07:33N 40°41' W 074°05'0 0.0
2015-Mar-31 06:34N 40°41' W 074°05'0 0.0
2015-Mar-31 05:33N 40°41' W 074°05'0 0.0
2015-Mar-31 04:33N 40°41' W 074°05'0 0.0
2015-Mar-31 03:33N 40°41' W 074°05'0 0.0
2015-Mar-31 02:33N 40°41' W 074°05'0 0.0
2015-Mar-31 01:33N 40°41' W 074°05'0 0.0
2015-Mar-31 00:33N 40°41' W 074°05'0 0.0
2015-Mar-30 23:33N 40°41' W 074°05'0 0.0
2015-Mar-30 22:33N 40°41' W 074°05'0 0.0
2015-Mar-30 21:34N 40°41' W 074°05'0 0.0
2015-Mar-30 20:33N 40°41' W 074°05'  

Dump ship's entire track history